sensor_id;sensor_type;location;lat;lon;timestamp;P1;durP1;ratioP1;P2;durP2;ratioP2
18931;SDS011;9598;50.954;3.112;2022-08-03T00:00:17;4.95;;;1.90;;
18931;SDS011;9598;50.954;3.112;2022-08-03T00:05:21;3.97;;;1.83;;
18931;SDS011;9598;50.954;3.112;2022-08-03T00:10:23;2.95;;;1.52;;
18931;SDS011;9598;50.954;3.112;2022-08-03T00:15:25;4.60;;;2.15;;
18931;SDS011;9598;50.954;3.112;2022-08-03T00:20:29;4.35;;;1.50;;
18931;SDS011;9598;50.954;3.112;2022-08-03T00:25:31;5.53;;;2.05;;
18931;SDS011;9598;50.954;3.112;2022-08-03T00:30:34;4.28;;;1.92;;
18931;SDS011;9598;50.954;3.112;2022-08-03T00:35:38;4.03;;;1.90;;
18931;SDS011;9598;50.954;3.112;2022-08-03T00:40:40;3.63;;;1.80;;
18931;SDS011;9598;50.954;3.112;2022-08-03T00:45:42;4.40;;;1.90;;
18931;SDS011;9598;50.954;3.112;2022-08-03T00:50:46;4.35;;;1.90;;
18931;SDS011;9598;50.954;3.112;2022-08-03T00:55:48;3.65;;;1.85;;
18931;SDS011;9598;50.954;3.112;2022-08-03T01:00:50;4.55;;;1.92;;
18931;SDS011;9598;50.954;3.112;2022-08-03T01:05:54;4.85;;;1.98;;
18931;SDS011;9598;50.954;3.112;2022-08-03T01:11:02;4.10;;;2.42;;
18931;SDS011;9598;50.954;3.112;2022-08-03T01:16:17;4.50;;;1.77;;
18931;SDS011;9598;50.954;3.112;2022-08-03T01:21:26;4.53;;;2.20;;
18931;SDS011;9598;50.954;3.112;2022-08-03T01:26:47;2.40;;;2.00;;
18931;SDS011;9598;50.954;3.112;2022-08-03T01:32:02;3.78;;;2.00;;
18931;SDS011;9598;50.954;3.112;2022-08-03T01:37:09;2.10;;;1.80;;
18931;SDS011;9598;50.954;3.112;2022-08-03T01:42:16;3.40;;;2.03;;
18931;SDS011;9598;50.954;3.112;2022-08-03T01:47:21;2.97;;;1.90;;
18931;SDS011;9598;50.954;3.112;2022-08-03T01:52:26;2.55;;;1.98;;
18931;SDS011;9598;50.954;3.112;2022-08-03T01:57:29;4.97;;;2.05;;
18931;SDS011;9598;50.954;3.112;2022-08-03T02:02:33;3.38;;;2.22;;
18931;SDS011;9598;50.954;3.112;2022-08-03T02:07:36;3.72;;;2.00;;
18931;SDS011;9598;50.954;3.112;2022-08-03T02:12:41;4.57;;;2.33;;
18931;SDS011;9598;50.954;3.112;2022-08-03T02:17:48;5.22;;;2.90;;
18931;SDS011;9598;50.954;3.112;2022-08-03T02:22:51;4.80;;;2.70;;
18931;SDS011;9598;50.954;3.112;2022-08-03T02:27:54;4.03;;;2.63;;
18931;SDS011;9598;50.954;3.112;2022-08-03T02:33:00;5.18;;;2.60;;
18931;SDS011;9598;50.954;3.112;2022-08-03T02:38:03;4.68;;;2.38;;
18931;SDS011;9598;50.954;3.112;2022-08-03T02:43:12;5.18;;;2.55;;
18931;SDS011;9598;50.954;3.112;2022-08-03T02:48:24;6.30;;;2.35;;
18931;SDS011;9598;50.954;3.112;2022-08-03T02:53:29;5.55;;;2.80;;
18931;SDS011;9598;50.954;3.112;2022-08-03T02:58:37;4.07;;;2.80;;
18931;SDS011;9598;50.954;3.112;2022-08-03T03:03:42;6.97;;;2.65;;
18931;SDS011;9598;50.954;3.112;2022-08-03T03:08:44;4.40;;;2.53;;
18931;SDS011;9598;50.954;3.112;2022-08-03T03:13:48;4.55;;;2.45;;
18931;SDS011;9598;50.954;3.112;2022-08-03T03:18:53;5.80;;;2.88;;
18931;SDS011;9598;50.954;3.112;2022-08-03T03:23:55;6.28;;;2.53;;
18931;SDS011;9598;50.954;3.112;2022-08-03T03:28:59;8.05;;;2.65;;
18931;SDS011;9598;50.954;3.112;2022-08-03T03:34:06;4.45;;;2.65;;
18931;SDS011;9598;50.954;3.112;2022-08-03T03:39:09;5.45;;;2.60;;
18931;SDS011;9598;50.954;3.112;2022-08-03T03:44:12;5.97;;;2.63;;
18931;SDS011;9598;50.954;3.112;2022-08-03T03:49:15;5.65;;;2.97;;
18931;SDS011;9598;50.954;3.112;2022-08-03T03:54:17;5.03;;;2.92;;
18931;SDS011;9598;50.954;3.112;2022-08-03T03:59:20;4.65;;;2.95;;
18931;SDS011;9598;50.954;3.112;2022-08-03T04:04:23;3.67;;;2.72;;
18931;SDS011;9598;50.954;3.112;2022-08-03T04:09:43;5.30;;;2.80;;
18931;SDS011;9598;50.954;3.112;2022-08-03T04:15:04;5.82;;;3.20;;
18931;SDS011;9598;50.954;3.112;2022-08-03T04:20:10;5.53;;;2.58;;
18931;SDS011;9598;50.954;3.112;2022-08-03T04:25:14;6.15;;;2.70;;
18931;SDS011;9598;50.954;3.112;2022-08-03T04:30:18;4.18;;;2.72;;
18931;SDS011;9598;50.954;3.112;2022-08-03T04:35:26;6.05;;;3.03;;
18931;SDS011;9598;50.954;3.112;2022-08-03T04:40:33;5.35;;;2.63;;
18931;SDS011;9598;50.954;3.112;2022-08-03T04:45:37;8.32;;;3.08;;
18931;SDS011;9598;50.954;3.112;2022-08-03T04:50:41;8.10;;;2.70;;
18931;SDS011;9598;50.954;3.112;2022-08-03T04:55:43;9.32;;;2.70;;
18931;SDS011;9598;50.954;3.112;2022-08-03T05:00:46;11.07;;;3.63;;
18931;SDS011;9598;50.954;3.112;2022-08-03T05:05:52;11.15;;;3.30;;
18931;SDS011;9598;50.954;3.112;2022-08-03T05:10:55;3.60;;;2.67;;
18931;SDS011;9598;50.954;3.112;2022-08-03T05:15:59;7.40;;;3.40;;
18931;SDS011;9598;50.954;3.112;2022-08-03T05:21:03;7.15;;;3.35;;
18931;SDS011;9598;50.954;3.112;2022-08-03T05:26:08;7.05;;;3.38;;
18931;SDS011;9598;50.954;3.112;2022-08-03T05:31:12;6.95;;;3.47;;
18931;SDS011;9598;50.954;3.112;2022-08-03T05:36:16;8.00;;;3.10;;
18931;SDS011;9598;50.954;3.112;2022-08-03T05:41:18;6.18;;;3.55;;
18931;SDS011;9598;50.954;3.112;2022-08-03T05:46:20;4.53;;;3.17;;
18931;SDS011;9598;50.954;3.112;2022-08-03T05:51:24;5.47;;;3.30;;
18931;SDS011;9598;50.954;3.112;2022-08-03T05:56:28;9.07;;;3.97;;
18931;SDS011;9598;50.954;3.112;2022-08-03T06:01:30;7.95;;;3.50;;
18931;SDS011;9598;50.954;3.112;2022-08-03T06:06:34;7.00;;;3.33;;
18931;SDS011;9598;50.954;3.112;2022-08-03T06:11:36;3.53;;;3.05;;
18931;SDS011;9598;50.954;3.112;2022-08-03T06:16:38;9.63;;;3.88;;
18931;SDS011;9598;50.954;3.112;2022-08-03T06:21:41;8.45;;;3.45;;
18931;SDS011;9598;50.954;3.112;2022-08-03T06:26:44;9.93;;;3.20;;
18931;SDS011;9598;50.954;3.112;2022-08-03T06:31:46;10.43;;;3.13;;
18931;SDS011;9598;50.954;3.112;2022-08-03T06:36:49;8.50;;;3.42;;
18931;SDS011;9598;50.954;3.112;2022-08-03T06:41:51;11.68;;;3.78;;
18931;SDS011;9598;50.954;3.112;2022-08-03T06:46:53;9.27;;;3.72;;
18931;SDS011;9598;50.954;3.112;2022-08-03T06:51:57;7.20;;;3.15;;
18931;SDS011;9598;50.954;3.112;2022-08-03T06:56:59;10.38;;;4.13;;
18931;SDS011;9598;50.954;3.112;2022-08-03T07:02:01;7.35;;;3.08;;
18931;SDS011;9598;50.954;3.112;2022-08-03T07:07:05;10.13;;;3.60;;
18931;SDS011;9598;50.954;3.112;2022-08-03T07:12:07;9.38;;;3.10;;
18931;SDS011;9598;50.954;3.112;2022-08-03T07:17:09;6.93;;;3.33;;
18931;SDS011;9598;50.954;3.112;2022-08-03T07:22:13;8.43;;;2.70;;
18931;SDS011;9598;50.954;3.112;2022-08-03T07:27:15;7.97;;;2.88;;
18931;SDS011;9598;50.954;3.112;2022-08-03T07:32:17;8.82;;;2.92;;
18931;SDS011;9598;50.954;3.112;2022-08-03T07:37:21;7.50;;;2.65;;
18931;SDS011;9598;50.954;3.112;2022-08-03T07:42:23;9.20;;;3.85;;
18931;SDS011;9598;50.954;3.112;2022-08-03T07:47:26;9.52;;;3.20;;
18931;SDS011;9598;50.954;3.112;2022-08-03T07:52:31;10.43;;;2.90;;
18931;SDS011;9598;50.954;3.112;2022-08-03T07:57:57;10.10;;;2.92;;
18931;SDS011;9598;50.954;3.112;2022-08-03T08:03:01;8.60;;;2.75;;
18931;SDS011;9598;50.954;3.112;2022-08-03T08:08:05;9.73;;;2.85;;
18931;SDS011;9598;50.954;3.112;2022-08-03T08:13:07;9.80;;;2.90;;
18931;SDS011;9598;50.954;3.112;2022-08-03T08:18:10;6.45;;;2.80;;
18931;SDS011;9598;50.954;3.112;2022-08-03T08:23:13;8.27;;;2.55;;
18931;SDS011;9598;50.954;3.112;2022-08-03T08:28:17;7.55;;;2.67;;
18931;SDS011;9598;50.954;3.112;2022-08-03T08:33:19;7.60;;;2.65;;
18931;SDS011;9598;50.954;3.112;2022-08-03T08:38:25;7.30;;;2.83;;
18931;SDS011;9598;50.954;3.112;2022-08-03T08:43:27;10.50;;;3.33;;
18931;SDS011;9598;50.954;3.112;2022-08-03T08:48:32;6.72;;;2.70;;
18931;SDS011;9598;50.954;3.112;2022-08-03T08:53:40;8.07;;;2.20;;
18931;SDS011;9598;50.954;3.112;2022-08-03T08:58:46;9.18;;;2.65;;
18931;SDS011;9598;50.954;3.112;2022-08-03T09:03:52;7.35;;;2.85;;
18931;SDS011;9598;50.954;3.112;2022-08-03T09:08:56;7.10;;;2.58;;
18931;SDS011;9598;50.954;3.112;2022-08-03T09:13:58;6.70;;;2.25;;
18931;SDS011;9598;50.954;3.112;2022-08-03T09:19:10;7.18;;;2.15;;
18931;SDS011;9598;50.954;3.112;2022-08-03T09:24:16;9.68;;;2.45;;
18931;SDS011;9598;50.954;3.112;2022-08-03T09:29:22;8.25;;;2.60;;
18931;SDS011;9598;50.954;3.112;2022-08-03T09:34:25;4.90;;;2.05;;
18931;SDS011;9598;50.954;3.112;2022-08-03T09:39:32;5.40;;;2.20;;
18931;SDS011;9598;50.954;3.112;2022-08-03T09:44:39;6.82;;;2.17;;
18931;SDS011;9598;50.954;3.112;2022-08-03T09:49:42;5.78;;;2.15;;
18931;SDS011;9598;50.954;3.112;2022-08-03T09:55:06;4.70;;;1.70;;
18931;SDS011;9598;50.954;3.112;2022-08-03T10:00:10;4.88;;;1.90;;
18931;SDS011;9598;50.954;3.112;2022-08-03T10:05:14;4.38;;;2.38;;
18931;SDS011;9598;50.954;3.112;2022-08-03T10:10:17;5.25;;;1.77;;
18931;SDS011;9598;50.954;3.112;2022-08-03T10:15:19;7.47;;;2.55;;
18931;SDS011;9598;50.954;3.112;2022-08-03T10:20:22;4.50;;;2.22;;
18931;SDS011;9598;50.954;3.112;2022-08-03T10:25:26;5.35;;;2.03;;
18931;SDS011;9598;50.954;3.112;2022-08-03T10:30:32;5.75;;;2.13;;
18931;SDS011;9598;50.954;3.112;2022-08-03T10:35:34;4.05;;;1.70;;
18931;SDS011;9598;50.954;3.112;2022-08-03T10:40:41;7.97;;;1.92;;
18931;SDS011;9598;50.954;3.112;2022-08-03T10:45:44;5.85;;;1.63;;
18931;SDS011;9598;50.954;3.112;2022-08-03T10:50:47;2.97;;;1.42;;
18931;SDS011;9598;50.954;3.112;2022-08-03T10:55:52;3.45;;;1.58;;
18931;SDS011;9598;50.954;3.112;2022-08-03T11:01:11;3.30;;;1.67;;
18931;SDS011;9598;50.954;3.112;2022-08-03T11:06:14;5.07;;;1.88;;
18931;SDS011;9598;50.954;3.112;2022-08-03T11:11:25;3.85;;;1.33;;
18931;SDS011;9598;50.954;3.112;2022-08-03T11:16:29;7.10;;;2.03;;
18931;SDS011;9598;50.954;3.112;2022-08-03T11:21:55;3.97;;;1.70;;
18931;SDS011;9598;50.954;3.112;2022-08-03T11:38:02;6.20;;;1.95;;
18931;SDS011;9598;50.954;3.112;2022-08-03T11:43:42;4.78;;;1.63;;
18931;SDS011;9598;50.954;3.112;2022-08-03T11:48:53;4.78;;;1.73;;
18931;SDS011;9598;50.954;3.112;2022-08-03T11:54:04;4.90;;;1.58;;
18931;SDS011;9598;50.954;3.112;2022-08-03T11:59:08;5.47;;;1.63;;
18931;SDS011;9598;50.954;3.112;2022-08-03T12:04:10;1.90;;;1.35;;
18931;SDS011;9598;50.954;3.112;2022-08-03T12:09:15;6.70;;;1.67;;
18931;SDS011;9598;50.954;3.112;2022-08-03T12:14:19;5.10;;;1.98;;
18931;SDS011;9598;50.954;3.112;2022-08-03T12:19:21;3.85;;;1.65;;
18931;SDS011;9598;50.954;3.112;2022-08-03T12:24:23;3.97;;;1.73;;
18931;SDS011;9598;50.954;3.112;2022-08-03T12:29:30;5.90;;;1.60;;
18931;SDS011;9598;50.954;3.112;2022-08-03T12:39:52;4.90;;;2.00;;
18931;SDS011;9598;50.954;3.112;2022-08-03T12:45:00;4.88;;;1.60;;
18931;SDS011;9598;50.954;3.112;2022-08-03T12:50:25;3.42;;;1.80;;
18931;SDS011;9598;50.954;3.112;2022-08-03T12:55:29;3.72;;;1.45;;
18931;SDS011;9598;50.954;3.112;2022-08-03T13:00:35;4.30;;;1.48;;
18931;SDS011;9598;50.954;3.112;2022-08-03T13:05:44;5.72;;;1.88;;
18931;SDS011;9598;50.954;3.112;2022-08-03T13:10:46;1.90;;;1.23;;
18931;SDS011;9598;50.954;3.112;2022-08-03T13:15:50;2.80;;;1.30;;
18931;SDS011;9598;50.954;3.112;2022-08-03T13:20:53;3.60;;;1.48;;
18931;SDS011;9598;50.954;3.112;2022-08-03T13:25:55;3.38;;;1.48;;
18931;SDS011;9598;50.954;3.112;2022-08-03T13:30:59;3.50;;;1.45;;
18931;SDS011;9598;50.954;3.112;2022-08-03T13:36:01;3.90;;;1.50;;
18931;SDS011;9598;50.954;3.112;2022-08-03T13:41:03;2.67;;;1.20;;
18931;SDS011;9598;50.954;3.112;2022-08-03T13:46:08;3.70;;;1.60;;
18931;SDS011;9598;50.954;3.112;2022-08-03T13:51:10;6.93;;;1.50;;
18931;SDS011;9598;50.954;3.112;2022-08-03T13:56:12;1.13;;;1.02;;
18931;SDS011;9598;50.954;3.112;2022-08-03T14:01:15;3.90;;;1.30;;
18931;SDS011;9598;50.954;3.112;2022-08-03T14:06:18;4.95;;;1.58;;
18931;SDS011;9598;50.954;3.112;2022-08-03T14:11:20;4.70;;;1.30;;
18931;SDS011;9598;50.954;3.112;2022-08-03T14:16:23;3.00;;;1.50;;
18931;SDS011;9598;50.954;3.112;2022-08-03T14:21:26;2.45;;;1.27;;
18931;SDS011;9598;50.954;3.112;2022-08-03T14:26:28;3.30;;;1.15;;
18931;SDS011;9598;50.954;3.112;2022-08-03T14:31:32;2.45;;;1.17;;
18931;SDS011;9598;50.954;3.112;2022-08-03T14:36:34;4.35;;;1.52;;
18931;SDS011;9598;50.954;3.112;2022-08-03T14:41:36;2.50;;;1.00;;
18931;SDS011;9598;50.954;3.112;2022-08-03T14:46:39;1.98;;;1.40;;
18931;SDS011;9598;50.954;3.112;2022-08-03T14:51:41;1.27;;;1.05;;
18931;SDS011;9598;50.954;3.112;2022-08-03T14:56:43;2.72;;;1.13;;
18931;SDS011;9598;50.954;3.112;2022-08-03T15:01:46;2.45;;;1.15;;
18931;SDS011;9598;50.954;3.112;2022-08-03T15:06:48;3.50;;;1.67;;
18931;SDS011;9598;50.954;3.112;2022-08-03T15:11:51;4.93;;;1.80;;
18931;SDS011;9598;50.954;3.112;2022-08-03T15:16:54;3.42;;;1.10;;
18931;SDS011;9598;50.954;3.112;2022-08-03T15:21:56;2.20;;;1.40;;
18931;SDS011;9598;50.954;3.112;2022-08-03T15:26:58;1.83;;;1.00;;
18931;SDS011;9598;50.954;3.112;2022-08-03T15:32:02;4.13;;;1.58;;
18931;SDS011;9598;50.954;3.112;2022-08-03T15:37:04;2.33;;;1.10;;
18931;SDS011;9598;50.954;3.112;2022-08-03T15:42:06;3.20;;;1.40;;
18931;SDS011;9598;50.954;3.112;2022-08-03T15:47:10;3.15;;;1.17;;
18931;SDS011;9598;50.954;3.112;2022-08-03T15:52:12;4.10;;;1.75;;
18931;SDS011;9598;50.954;3.112;2022-08-03T15:57:14;5.15;;;1.95;;
18931;SDS011;9598;50.954;3.112;2022-08-03T16:02:17;6.95;;;1.90;;
18931;SDS011;9598;50.954;3.112;2022-08-03T16:07:20;6.70;;;2.33;;
18931;SDS011;9598;50.954;3.112;2022-08-03T16:12:36;10.45;;;2.70;;
18931;SDS011;9598;50.954;3.112;2022-08-03T16:17:40;5.13;;;1.90;;
18931;SDS011;9598;50.954;3.112;2022-08-03T16:22:43;7.80;;;2.47;;
18931;SDS011;9598;50.954;3.112;2022-08-03T16:27:46;7.65;;;2.08;;
18931;SDS011;9598;50.954;3.112;2022-08-03T16:32:50;6.03;;;2.40;;
18931;SDS011;9598;50.954;3.112;2022-08-03T16:37:52;5.60;;;1.80;;
18931;SDS011;9598;50.954;3.112;2022-08-03T16:42:54;5.05;;;2.05;;
18931;SDS011;9598;50.954;3.112;2022-08-03T16:48:00;9.88;;;3.08;;
18931;SDS011;9598;50.954;3.112;2022-08-03T16:53:03;8.00;;;2.50;;
18931;SDS011;9598;50.954;3.112;2022-08-03T16:58:07;5.72;;;2.70;;
18931;SDS011;9598;50.954;3.112;2022-08-03T17:03:11;5.78;;;2.28;;
18931;SDS011;9598;50.954;3.112;2022-08-03T17:08:15;5.80;;;2.08;;
18931;SDS011;9598;50.954;3.112;2022-08-03T17:13:18;6.38;;;2.45;;
18931;SDS011;9598;50.954;3.112;2022-08-03T17:18:24;6.97;;;2.45;;
18931;SDS011;9598;50.954;3.112;2022-08-03T17:23:31;8.68;;;2.65;;
18931;SDS011;9598;50.954;3.112;2022-08-03T17:28:40;7.70;;;2.45;;
18931;SDS011;9598;50.954;3.112;2022-08-03T17:33:46;6.20;;;2.53;;
18931;SDS011;9598;50.954;3.112;2022-08-03T17:38:49;5.13;;;3.20;;
18931;SDS011;9598;50.954;3.112;2022-08-03T17:43:54;8.93;;;4.47;;
18931;SDS011;9598;50.954;3.112;2022-08-03T17:48:57;11.45;;;3.58;;
18931;SDS011;9598;50.954;3.112;2022-08-03T17:54:04;8.50;;;3.05;;
18931;SDS011;9598;50.954;3.112;2022-08-03T17:59:17;7.22;;;2.90;;
18931;SDS011;9598;50.954;3.112;2022-08-03T18:04:26;6.57;;;2.40;;
18931;SDS011;9598;50.954;3.112;2022-08-03T18:09:29;10.10;;;3.05;;
18931;SDS011;9598;50.954;3.112;2022-08-03T18:14:37;5.72;;;2.20;;
18931;SDS011;9598;50.954;3.112;2022-08-03T18:19:45;5.47;;;1.92;;
18931;SDS011;9598;50.954;3.112;2022-08-03T18:24:49;4.90;;;1.92;;
18931;SDS011;9598;50.954;3.112;2022-08-03T18:29:52;6.20;;;2.30;;
18931;SDS011;9598;50.954;3.112;2022-08-03T18:34:56;3.88;;;2.00;;
18931;SDS011;9598;50.954;3.112;2022-08-03T18:40:01;6.20;;;2.97;;
18931;SDS011;9598;50.954;3.112;2022-08-03T18:45:04;6.05;;;2.30;;
18931;SDS011;9598;50.954;3.112;2022-08-03T18:50:11;5.82;;;2.00;;
18931;SDS011;9598;50.954;3.112;2022-08-03T18:55:19;6.72;;;2.25;;
18931;SDS011;9598;50.954;3.112;2022-08-03T19:00:26;3.90;;;1.83;;
18931;SDS011;9598;50.954;3.112;2022-08-03T19:05:36;4.18;;;1.40;;
18931;SDS011;9598;50.954;3.112;2022-08-03T19:10:42;6.55;;;1.80;;
18931;SDS011;9598;50.954;3.112;2022-08-03T19:15:47;4.88;;;1.60;;
18931;SDS011;9598;50.954;3.112;2022-08-03T19:20:53;4.85;;;2.15;;
18931;SDS011;9598;50.954;3.112;2022-08-03T19:25:56;5.50;;;1.67;;
18931;SDS011;9598;50.954;3.112;2022-08-03T19:31:00;3.15;;;1.48;;
18931;SDS011;9598;50.954;3.112;2022-08-03T19:36:04;3.72;;;1.55;;
18931;SDS011;9598;50.954;3.112;2022-08-03T19:41:10;3.00;;;1.30;;
18931;SDS011;9598;50.954;3.112;2022-08-03T19:46:15;3.33;;;1.48;;
18931;SDS011;9598;50.954;3.112;2022-08-03T19:51:21;3.13;;;1.50;;
18931;SDS011;9598;50.954;3.112;2022-08-03T19:56:24;4.78;;;2.42;;
18931;SDS011;9598;50.954;3.112;2022-08-03T20:01:27;3.85;;;2.15;;
18931;SDS011;9598;50.954;3.112;2022-08-03T20:06:31;2.80;;;1.67;;
18931;SDS011;9598;50.954;3.112;2022-08-03T20:11:33;5.70;;;2.30;;
18931;SDS011;9598;50.954;3.112;2022-08-03T20:16:36;4.35;;;1.58;;
18931;SDS011;9598;50.954;3.112;2022-08-03T20:21:40;4.85;;;2.13;;
18931;SDS011;9598;50.954;3.112;2022-08-03T20:26:44;5.60;;;1.88;;
18931;SDS011;9598;50.954;3.112;2022-08-03T20:31:49;7.25;;;2.40;;
18931;SDS011;9598;50.954;3.112;2022-08-03T20:36:52;3.30;;;2.00;;
18931;SDS011;9598;50.954;3.112;2022-08-03T20:41:54;3.63;;;1.73;;
18931;SDS011;9598;50.954;3.112;2022-08-03T20:46:56;6.93;;;2.22;;
18931;SDS011;9598;50.954;3.112;2022-08-03T20:52:00;3.65;;;2.00;;
18931;SDS011;9598;50.954;3.112;2022-08-03T20:57:04;3.70;;;2.30;;
18931;SDS011;9598;50.954;3.112;2022-08-03T21:02:07;5.45;;;2.53;;
18931;SDS011;9598;50.954;3.112;2022-08-03T21:07:14;4.63;;;2.17;;
18931;SDS011;9598;50.954;3.112;2022-08-03T21:12:22;2.58;;;1.98;;
18931;SDS011;9598;50.954;3.112;2022-08-03T21:17:30;4.00;;;1.88;;
18931;SDS011;9598;50.954;3.112;2022-08-03T21:22:36;5.40;;;2.10;;
18931;SDS011;9598;50.954;3.112;2022-08-03T21:27:39;2.67;;;1.90;;
18931;SDS011;9598;50.954;3.112;2022-08-03T21:32:41;3.85;;;2.22;;
18931;SDS011;9598;50.954;3.112;2022-08-03T21:37:46;2.30;;;1.98;;
18931;SDS011;9598;50.954;3.112;2022-08-03T21:43:08;3.70;;;1.88;;
18931;SDS011;9598;50.954;3.112;2022-08-03T21:48:10;3.83;;;2.15;;
18931;SDS011;9598;50.954;3.112;2022-08-03T21:53:15;2.85;;;2.00;;
18931;SDS011;9598;50.954;3.112;2022-08-03T21:58:19;4.95;;;2.42;;
18931;SDS011;9598;50.954;3.112;2022-08-03T22:03:26;4.53;;;2.42;;
18931;SDS011;9598;50.954;3.112;2022-08-03T22:08:31;3.20;;;2.03;;
18931;SDS011;9598;50.954;3.112;2022-08-03T22:13:34;6.45;;;1.85;;
18931;SDS011;9598;50.954;3.112;2022-08-03T22:18:37;5.30;;;2.15;;
18931;SDS011;9598;50.954;3.112;2022-08-03T22:23:42;3.15;;;2.28;;
18931;SDS011;9598;50.954;3.112;2022-08-03T22:28:47;5.57;;;1.98;;
18931;SDS011;9598;50.954;3.112;2022-08-03T22:33:51;4.53;;;2.42;;
18931;SDS011;9598;50.954;3.112;2022-08-03T22:38:55;2.97;;;1.77;;
18931;SDS011;9598;50.954;3.112;2022-08-03T22:43:57;3.25;;;1.90;;
18931;SDS011;9598;50.954;3.112;2022-08-03T22:48:59;4.60;;;2.05;;
18931;SDS011;9598;50.954;3.112;2022-08-03T22:54:03;2.63;;;1.90;;
18931;SDS011;9598;50.954;3.112;2022-08-03T22:59:06;4.28;;;2.35;;
18931;SDS011;9598;50.954;3.112;2022-08-03T23:04:08;3.00;;;2.00;;
18931;SDS011;9598;50.954;3.112;2022-08-03T23:09:12;6.50;;;2.78;;
18931;SDS011;9598;50.954;3.112;2022-08-03T23:14:17;4.13;;;2.90;;
18931;SDS011;9598;50.954;3.112;2022-08-03T23:19:19;5.47;;;2.58;;
18931;SDS011;9598;50.954;3.112;2022-08-03T23:24:28;2.53;;;2.33;;
18931;SDS011;9598;50.954;3.112;2022-08-03T23:29:30;3.50;;;3.05;;
18931;SDS011;9598;50.954;3.112;2022-08-03T23:34:34;3.42;;;2.47;;
18931;SDS011;9598;50.954;3.112;2022-08-03T23:39:58;4.43;;;2.35;;
18931;SDS011;9598;50.954;3.112;2022-08-03T23:45:01;4.03;;;2.95;;
18931;SDS011;9598;50.954;3.112;2022-08-03T23:50:04;4.05;;;2.42;;
18931;SDS011;9598;50.954;3.112;2022-08-03T23:55:12;3.88;;;2.88;;
